Terminal Aerodrome Forecast
Issued by NWS Mobile, AL

Home | Current Version | Previous Version | Text Only | Print | Product List | Glossary On
Versions: 1 2 3 4 5 6 7 8 9 10 11 12 13
000
FTUS44 KMOB 102336
TAFMOB
TAF
KMOB 102336Z 1100/1124 36004KT P6SM FEW250
     FM111600 08005KT P6SM SCT020
     FM111900 13009KT P6SM BKN025
     FM112300 14008KT P6SM SCT025=

USA.gov is the U.S. government's official web portal to all federal, state and local government web resources and services.